sensor_id;sensor_type;location;lat;lon;timestamp;pressure;altitude;pressure_sealevel;temperature;humidity
73101;BME280;61288;53.446;-2.266;2023-10-13T00:02:06;101671.97;;;11.08;100.00
73101;BME280;61288;53.446;-2.266;2023-10-13T00:04:33;101661.59;;;11.08;100.00
73101;BME280;61288;53.446;-2.266;2023-10-13T00:07:01;101659.91;;;11.07;100.00
73101;BME280;61288;53.446;-2.266;2023-10-13T00:09:28;101665.09;;;11.07;100.00
73101;BME280;61288;53.446;-2.266;2023-10-13T00:12:08;101664.22;;;11.07;100.00
73101;BME280;61288;53.446;-2.266;2023-10-13T00:14:39;101665.97;;;11.06;100.00
73101;BME280;61288;53.446;-2.266;2023-10-13T00:17:07;101665.09;;;11.07;100.00
73101;BME280;61288;53.446;-2.266;2023-10-13T00:19:35;101665.09;;;11.07;100.00
73101;BME280;61288;53.446;-2.266;2023-10-13T00:22:11;101671.97;;;11.08;100.00
73101;BME280;61288;53.446;-2.266;2023-10-13T00:24:39;101676.28;;;11.09;100.00
73101;BME280;61288;53.446;-2.266;2023-10-13T00:27:15;101675.41;;;11.09;100.00
73101;BME280;61288;53.446;-2.266;2023-10-13T00:30:04;101683.19;;;11.09;100.00
73101;BME280;61288;53.446;-2.266;2023-10-13T00:32:47;101676.28;;;11.09;100.00
73101;BME280;61288;53.446;-2.266;2023-10-13T00:35:18;101683.19;;;11.09;100.00
73101;BME280;61288;53.446;-2.266;2023-10-13T00:37:54;101683.25;;;11.07;100.00
73101;BME280;61288;53.446;-2.266;2023-10-13T00:40:22;101680.66;;;11.07;100.00
73101;BME280;61288;53.446;-2.266;2023-10-13T00:43:07;101683.19;;;11.09;100.00
73101;BME280;61288;53.446;-2.266;2023-10-13T00:45:53;101680.66;;;11.07;100.00
73101;BME280;61288;53.446;-2.266;2023-10-13T00:48:29;101678.00;;;11.09;100.00
73101;BME280;61288;53.446;-2.266;2023-10-13T00:51:05;101678.88;;;11.09;100.00
73101;BME280;61288;53.446;-2.266;2023-10-13T00:53:33;101678.00;;;11.09;100.00
73101;BME280;61288;53.446;-2.266;2023-10-13T00:56:03;101689.28;;;11.08;100.00
73101;BME280;61288;53.446;-2.266;2023-10-13T00:58:34;101684.94;;;11.08;100.00
73101;BME280;61288;53.446;-2.266;2023-10-13T01:01:03;101687.56;;;11.07;100.00
73101;BME280;61288;53.446;-2.266;2023-10-13T01:03:52;101690.16;;;11.07;100.00
73101;BME280;61288;53.446;-2.266;2023-10-13T01:06:23;101699.69;;;11.06;100.00
73101;BME280;61288;53.446;-2.266;2023-10-13T01:09:07;101698.84;;;11.06;100.00
73101;BME280;61288;53.446;-2.266;2023-10-13T01:11:49;101699.72;;;11.05;100.00
73101;BME280;61288;53.446;-2.266;2023-10-13T01:14:20;101698.03;;;11.04;100.00
73101;BME280;61288;53.446;-2.266;2023-10-13T01:16:46;101704.91;;;11.05;100.00
73101;BME280;61288;53.446;-2.266;2023-10-13T01:19:13;101698.88;;;11.04;100.00
73101;BME280;61288;53.446;-2.266;2023-10-13T01:21:42;101701.47;;;11.04;100.00
73101;BME280;61288;53.446;-2.266;2023-10-13T01:24:10;101704.09;;;11.03;100.00
73101;BME280;61288;53.446;-2.266;2023-10-13T01:26:39;101707.59;;;11.02;100.00
73101;BME280;61288;53.446;-2.266;2023-10-13T01:29:09;101705.88;;;11.01;100.00
73101;BME280;61288;53.446;-2.266;2023-10-13T01:31:42;101717.97;;;11.02;100.00
73101;BME280;61288;53.446;-2.266;2023-10-13T01:34:15;101711.97;;;11.00;100.00
73101;BME280;61288;53.446;-2.266;2023-10-13T01:36:51;101728.34;;;11.02;100.00
73101;BME280;61288;53.446;-2.266;2023-10-13T01:39:17;101727.50;;;11.01;100.00
73101;BME280;61288;53.446;-2.266;2023-10-13T01:41:44;101733.59;;;11.00;100.00
73101;BME280;61288;53.446;-2.266;2023-10-13T01:44:10;101739.59;;;11.01;100.00
73101;BME280;61288;53.446;-2.266;2023-10-13T01:46:40;101743.97;;;11.00;100.00
73101;BME280;61288;53.446;-2.266;2023-10-13T01:49:08;101750.88;;;11.00;100.00
73101;BME280;61288;53.446;-2.266;2023-10-13T01:51:34;101751.75;;;11.00;100.00
73101;BME280;61288;53.446;-2.266;2023-10-13T01:54:01;101756.06;;;11.00;100.00
73101;BME280;61288;53.446;-2.266;2023-10-13T01:56:29;101756.91;;;11.00;100.00
73101;BME280;61288;53.446;-2.266;2023-10-13T01:58:56;101756.94;;;10.98;100.00
73101;BME280;61288;53.446;-2.266;2023-10-13T02:01:21;101759.53;;;10.98;100.00
73101;BME280;61288;53.446;-2.266;2023-10-13T02:03:55;101771.63;;;11.00;100.00
73101;BME280;61288;53.446;-2.266;2023-10-13T02:06:33;101768.13;;;11.01;100.00
73101;BME280;61288;53.446;-2.266;2023-10-13T02:09:05;101769.00;;;11.01;100.00
73101;BME280;61288;53.446;-2.266;2023-10-13T02:11:44;101770.69;;;11.02;100.00
73101;BME280;61288;53.446;-2.266;2023-10-13T02:14:14;101778.47;;;11.02;100.00
73101;BME280;61288;53.446;-2.266;2023-10-13T02:16:43;101781.06;;;11.02;100.00
73101;BME280;61288;53.446;-2.266;2023-10-13T02:19:12;101777.59;;;11.03;100.00
73101;BME280;61288;53.446;-2.266;2023-10-13T02:21:41;101779.31;;;11.03;100.00
73101;BME280;61288;53.446;-2.266;2023-10-13T02:24:11;101781.88;;;11.04;100.00
73101;BME280;61288;53.446;-2.266;2023-10-13T02:26:44;101788.81;;;11.04;100.00
73101;BME280;61288;53.446;-2.266;2023-10-13T02:29:10;101778.44;;;11.04;100.00
73101;BME280;61288;53.446;-2.266;2023-10-13T02:31:43;101795.66;;;11.06;100.00
73101;BME280;61288;53.446;-2.266;2023-10-13T02:34:19;101794.78;;;11.06;100.00
73101;BME280;61288;53.446;-2.266;2023-10-13T02:36:44;101811.16;;;11.08;100.00
73101;BME280;61288;53.446;-2.266;2023-10-13T02:39:21;101818.13;;;11.07;100.00
73101;BME280;61288;53.446;-2.266;2023-10-13T02:41:51;101836.28;;;11.07;100.00
73101;BME280;61288;53.446;-2.266;2023-10-13T02:44:17;101849.19;;;11.09;100.00
73101;BME280;61288;53.446;-2.266;2023-10-13T02:47:02;101867.34;;;11.09;100.00
73101;BME280;61288;53.446;-2.266;2023-10-13T02:49:39;101896.75;;;11.09;100.00
73101;BME280;61288;53.446;-2.266;2023-10-13T02:52:09;101911.44;;;11.09;100.00
73101;BME280;61288;53.446;-2.266;2023-10-13T02:54:35;101921.81;;;11.09;100.00
73101;BME280;61288;53.446;-2.266;2023-10-13T02:57:16;101959.84;;;11.10;100.00
73101;BME280;61288;53.446;-2.266;2023-10-13T02:59:43;101990.13;;;11.09;100.00
73101;BME280;61288;53.446;-2.266;2023-10-13T03:02:13;102003.91;;;11.11;100.00
73101;BME280;61288;53.446;-2.266;2023-10-13T03:04:49;102019.47;;;11.11;100.00
73101;BME280;61288;53.446;-2.266;2023-10-13T03:07:16;102023.78;;;11.12;100.00
73101;BME280;61288;53.446;-2.266;2023-10-13T03:09:48;102023.78;;;11.12;100.00
73101;BME280;61288;53.446;-2.266;2023-10-13T03:12:17;102034.13;;;11.14;100.00
73101;BME280;61288;53.446;-2.266;2023-10-13T03:14:44;102054.88;;;11.14;100.00
73101;BME280;61288;53.446;-2.266;2023-10-13T03:17:22;102077.34;;;11.15;100.00
73101;BME280;61288;53.446;-2.266;2023-10-13T03:20:00;102096.34;;;11.16;100.00
73101;BME280;61288;53.446;-2.266;2023-10-13T03:22:26;102123.16;;;11.16;100.00
73101;BME280;61288;53.446;-2.266;2023-10-13T03:24:59;102166.34;;;11.19;100.00
73101;BME280;61288;53.446;-2.266;2023-10-13T03:27:38;102205.22;;;11.20;100.00
73101;BME280;61288;53.446;-2.266;2023-10-13T03:30:27;102259.66;;;11.22;100.00
73101;BME280;61288;53.446;-2.266;2023-10-13T03:33:10;102293.38;;;11.23;100.00
73101;BME280;61288;53.446;-2.266;2023-10-13T03:35:41;102329.69;;;11.25;100.00
73101;BME280;61288;53.446;-2.266;2023-10-13T03:38:08;102372.06;;;11.25;100.00
73101;BME280;61288;53.446;-2.266;2023-10-13T03:40:49;102419.59;;;11.27;100.00
73101;BME280;61288;53.446;-2.266;2023-10-13T03:43:21;102454.16;;;11.30;100.00
73101;BME280;61288;53.446;-2.266;2023-10-13T03:45:49;102497.44;;;11.29;100.00
73101;BME280;61288;53.446;-2.266;2023-10-13T03:48:19;102528.53;;;11.31;100.00
73101;BME280;61288;53.446;-2.266;2023-10-13T03:50:47;102564.88;;;11.31;100.00
73101;BME280;61288;53.446;-2.266;2023-10-13T03:53:37;102612.44;;;11.33;100.00
73101;BME280;61288;53.446;-2.266;2023-10-13T03:58:55;102698.91;;;11.35;100.00
73101;BME280;61288;53.446;-2.266;2023-10-13T04:01:26;102745.63;;;11.36;100.00
73101;BME280;61288;53.446;-2.266;2023-10-13T04:04:00;102792.34;;;11.36;100.00
73101;BME280;61288;53.446;-2.266;2023-10-13T04:06:33;102823.50;;;11.36;100.00
73101;BME280;61288;53.446;-2.266;2023-10-13T04:09:23;102862.41;;;11.38;100.00
73101;BME280;61288;53.446;-2.266;2023-10-13T04:12:02;102915.19;;;11.38;100.00
73101;BME280;61288;53.446;-2.266;2023-10-13T04:14:35;102961.00;;;11.41;100.00
73101;BME280;61288;53.446;-2.266;2023-10-13T04:17:20;103010.34;;;11.43;100.00
73101;BME280;61288;53.446;-2.266;2023-10-13T04:19:52;103040.63;;;11.45;100.00
73101;BME280;61288;53.446;-2.266;2023-10-13T04:22:40;103103.78;;;11.46;100.00
73101;BME280;61288;53.446;-2.266;2023-10-13T04:28:10;103224.94;;;11.48;100.00
73101;BME280;61288;53.446;-2.266;2023-10-13T04:30:56;103282.91;;;11.50;100.00
73101;BME280;61288;53.446;-2.266;2023-10-13T04:36:07;103422.25;;;11.51;100.00
73101;BME280;61288;53.446;-2.266;2023-10-13T04:38:49;103498.41;;;11.53;100.00
73101;BME280;61288;53.446;-2.266;2023-10-13T04:44:11;103644.69;;;11.55;100.00
73101;BME280;61288;53.446;-2.266;2023-10-13T04:46:57;103726.91;;;11.55;100.00
73101;BME280;61288;53.446;-2.266;2023-10-13T04:49:28;103784.06;;;11.56;100.00
73101;BME280;61288;53.446;-2.266;2023-10-13T04:52:05;103842.06;;;11.57;100.00
73101;BME280;61288;53.446;-2.266;2023-10-13T04:54:43;103902.69;;;11.58;100.00
73101;BME280;61288;53.446;-2.266;2023-10-13T04:57:35;103939.03;;;11.58;100.00
73101;BME280;61288;53.446;-2.266;2023-10-13T05:00:13;103981.44;;;11.58;100.00
73101;BME280;61288;53.446;-2.266;2023-10-13T05:02:45;104052.50;;;11.60;100.00
73101;BME280;61288;53.446;-2.266;2023-10-13T05:05:27;104145.13;;;11.61;100.00
73101;BME280;61288;53.446;-2.266;2023-10-13T05:08:13;104211.81;;;11.62;100.00
73101;BME280;61288;53.446;-2.266;2023-10-13T05:10:57;104296.69;;;11.63;100.00
73101;BME280;61288;53.446;-2.266;2023-10-13T05:13:41;104378.06;;;11.62;100.00
73101;BME280;61288;53.446;-2.266;2023-10-13T05:16:25;104464.69;;;11.64;100.00
73101;BME280;61288;53.446;-2.266;2023-10-13T05:19:09;104543.47;;;11.65;100.00
73101;BME280;61288;53.446;-2.266;2023-10-13T05:21:53;104626.59;;;11.65;100.00
73101;BME280;61288;53.446;-2.266;2023-10-13T05:24:37;104719.28;;;11.66;100.00
73101;BME280;61288;53.446;-2.266;2023-10-13T05:27:41;104816.31;;;11.66;100.00
73101;BME280;61288;53.446;-2.266;2023-10-13T05:30:25;104922.00;;;11.67;100.00
73101;BME280;61288;53.446;-2.266;2023-10-13T05:33:09;104960.97;;;11.67;100.00
73101;BME280;61288;53.446;-2.266;2023-10-13T05:35:54;105072.69;;;11.67;100.00
73101;BME280;61288;53.446;-2.266;2023-10-13T05:38:38;105181.84;;;11.69;100.00
73101;BME280;61288;53.446;-2.266;2023-10-13T05:41:25;105289.28;;;11.69;100.00
73101;BME280;61288;53.446;-2.266;2023-10-13T05:44:09;105407.97;;;11.70;100.00
73101;BME280;61288;53.446;-2.266;2023-10-13T05:46:53;105503.28;;;11.72;100.00
73101;BME280;61288;53.446;-2.266;2023-10-13T05:49:37;105586.47;;;11.73;100.00
73101;BME280;61288;53.446;-2.266;2023-10-13T05:52:16;105659.31;;;11.75;100.00
73101;BME280;61288;53.446;-2.266;2023-10-13T05:54:45;105713.91;;;11.75;100.00
73101;BME280;61288;53.446;-2.266;2023-10-13T05:57:30;105722.56;;;11.75;100.00
73101;BME280;61288;53.446;-2.266;2023-10-13T06:00:11;105783.25;;;11.76;100.00
73101;BME280;61288;53.446;-2.266;2023-10-13T06:02:55;105838.69;;;11.76;100.00
73101;BME280;61288;53.446;-2.266;2023-10-13T06:05:39;105928.88;;;11.77;100.00
73101;BME280;61288;53.446;-2.266;2023-10-13T06:08:24;106020.78;;;11.79;100.00
73101;BME280;61288;53.446;-2.266;2023-10-13T06:11:08;106074.47;;;11.79;100.00
73101;BME280;61288;53.446;-2.266;2023-10-13T06:13:52;106491.31;;;11.79;100.00
73101;BME280;61288;53.446;-2.266;2023-10-13T06:16:36;106558.00;;;11.79;100.00
73101;BME280;61288;53.446;-2.266;2023-10-13T06:19:20;106635.09;;;11.78;100.00
73101;BME280;61288;53.446;-2.266;2023-10-13T06:22:04;106700.09;;;11.78;100.00
73101;BME280;61288;53.446;-2.266;2023-10-13T06:24:48;106772.81;;;11.77;100.00
73101;BME280;61288;53.446;-2.266;2023-10-13T06:27:33;106859.50;;;11.77;100.00
73101;BME280;61288;53.446;-2.266;2023-10-13T06:30:16;106912.28;;;11.76;100.00
73101;BME280;61288;53.446;-2.266;2023-10-13T06:32:43;106945.19;;;11.76;100.00
73101;BME280;61288;53.446;-2.266;2023-10-13T06:35:08;106970.28;;;11.75;100.00
73101;BME280;61288;53.446;-2.266;2023-10-13T06:37:34;107007.59;;;11.76;100.00
73101;BME280;61288;53.446;-2.266;2023-10-13T06:40:08;107065.69;;;11.76;100.00
73101;BME280;61288;53.446;-2.266;2023-10-13T06:42:53;107110.78;;;11.77;100.00
73101;BME280;61288;53.446;-2.266;2023-10-13T06:45:20;107164.47;;;11.76;100.00
73101;BME280;61288;53.446;-2.266;2023-10-13T06:47:47;107226.09;;;11.77;100.00
73101;BME280;61288;53.446;-2.266;2023-10-13T06:50:18;107334.41;;;11.77;100.00
73101;BME280;61288;53.446;-2.266;2023-10-13T06:52:50;107440.19;;;11.78;100.00
73101;BME280;61288;53.446;-2.266;2023-10-13T06:55:16;107497.41;;;11.78;100.00
73101;BME280;61288;53.446;-2.266;2023-10-13T06:57:56;107535.59;;;11.79;100.00
73101;BME280;61288;53.446;-2.266;2023-10-13T07:00:28;107562.41;;;11.78;100.00
73101;BME280;61288;53.446;-2.266;2023-10-13T07:03:04;107602.34;;;11.78;100.00
73101;BME280;61288;53.446;-2.266;2023-10-13T07:05:43;107631.81;;;11.79;100.00
73101;BME280;61288;53.446;-2.266;2023-10-13T07:08:11;107703.84;;;11.80;100.00
73101;BME280;61288;53.446;-2.266;2023-10-13T07:10:56;107725.56;;;11.80;100.00
73101;BME280;61288;53.446;-2.266;2023-10-13T07:13:29;107771.56;;;11.81;100.00
73101;BME280;61288;53.446;-2.266;2023-10-13T07:15:55;107813.19;;;11.81;100.00
73101;BME280;61288;53.446;-2.266;2023-10-13T07:18:31;107834.97;;;11.83;100.00
73101;BME280;61288;53.446;-2.266;2023-10-13T07:21:04;107867.09;;;11.84;100.00
73101;BME280;61288;53.446;-2.266;2023-10-13T07:23:52;107883.59;;;11.84;100.00
73101;BME280;61288;53.446;-2.266;2023-10-13T07:26:33;107913.22;;;11.87;100.00
73101;BME280;61288;53.446;-2.266;2023-10-13T07:28:59;107932.31;;;11.87;100.00
73101;BME280;61288;53.446;-2.266;2023-10-13T07:31:25;107961.94;;;11.89;100.00
73101;BME280;61288;53.446;-2.266;2023-10-13T07:33:52;107973.25;;;11.90;100.00
73101;BME280;61288;53.446;-2.266;2023-10-13T07:36:28;107993.16;;;11.89;100.00
73101;BME280;61288;53.446;-2.266;2023-10-13T07:38:58;108022.69;;;11.90;100.00
73101;BME280;61288;53.446;-2.266;2023-10-13T07:41:50;108032.16;;;11.89;100.00
73101;BME280;61288;53.446;-2.266;2023-10-13T07:44:22;108049.47;;;11.89;100.00
73101;BME280;61288;53.446;-2.266;2023-10-13T07:46:54;108026.06;;;11.89;100.00
73101;BME280;61288;53.446;-2.266;2023-10-13T07:49:33;108026.88;;;11.88;100.00
73101;BME280;61288;53.446;-2.266;2023-10-13T07:52:03;108028.66;;;11.89;100.00
73101;BME280;61288;53.446;-2.266;2023-10-13T07:54:52;108035.69;;;11.90;100.00
73101;BME280;61288;53.446;-2.266;2023-10-13T07:57:37;108049.69;;;11.92;100.00
73101;BME280;61288;53.446;-2.266;2023-10-13T08:00:18;108061.78;;;11.91;100.00
73101;BME280;61288;53.446;-2.266;2023-10-13T08:03:02;108060.22;;;11.93;100.00
73101;BME280;61288;53.446;-2.266;2023-10-13T08:05:40;108089.72;;;11.94;100.00
73101;BME280;61288;53.446;-2.266;2023-10-13T08:08:33;108108.16;;;11.97;100.00
73101;BME280;61288;53.446;-2.266;2023-10-13T08:11:08;108135.19;;;11.99;100.00
73101;BME280;61288;53.446;-2.266;2023-10-13T08:16:33;108167.91;;;12.07;100.00
73101;BME280;61288;53.446;-2.266;2023-10-13T08:19:26;108182.28;;;12.14;100.00
73101;BME280;61288;53.446;-2.266;2023-10-13T08:22:11;108219.84;;;12.18;100.00
73101;BME280;61288;53.446;-2.266;2023-10-13T08:24:43;108259.91;;;12.20;100.00
73101;BME280;61288;53.446;-2.266;2023-10-13T08:27:08;108269.53;;;12.21;100.00
73101;BME280;61288;53.446;-2.266;2023-10-13T08:29:44;108260.91;;;12.22;100.00
73101;BME280;61288;53.446;-2.266;2023-10-13T08:32:18;108267.94;;;12.23;100.00
73101;BME280;61288;53.446;-2.266;2023-10-13T08:35:00;108284.44;;;12.23;100.00
73101;BME280;61288;53.446;-2.266;2023-10-13T08:37:30;108287.84;;;12.22;100.00
73101;BME280;61288;53.446;-2.266;2023-10-13T08:40:00;108292.16;;;12.22;100.00
73101;BME280;61288;53.446;-2.266;2023-10-13T08:42:36;108303.44;;;12.22;100.00
73101;BME280;61288;53.446;-2.266;2023-10-13T08:45:07;108317.38;;;12.23;100.00
73101;BME280;61288;53.446;-2.266;2023-10-13T08:47:57;108372.94;;;12.23;100.00
73101;BME280;61288;53.446;-2.266;2023-10-13T08:51:00;108426.13;;;12.27;100.00
73101;BME280;61288;53.446;-2.266;2023-10-13T08:53:33;108453.19;;;12.29;100.00
73101;BME280;61288;53.446;-2.266;2023-10-13T08:56:10;108494.97;;;12.31;100.00
73101;BME280;61288;53.446;-2.266;2023-10-13T08:58:40;108508.09;;;12.32;100.00
73101;BME280;61288;53.446;-2.266;2023-10-13T09:04:03;108503.69;;;12.31;100.00
73101;BME280;61288;53.446;-2.266;2023-10-13T09:06:58;108500.97;;;12.30;100.00
73101;BME280;61288;53.446;-2.266;2023-10-13T09:09:47;108511.16;;;12.26;100.00
73101;BME280;61288;53.446;-2.266;2023-10-13T09:12:30;108517.00;;;12.24;100.00
73101;BME280;61288;53.446;-2.266;2023-10-13T09:15:09;108513.38;;;12.22;100.00
73101;BME280;61288;53.446;-2.266;2023-10-13T09:17:42;108525.78;;;12.14;100.00
73101;BME280;61288;53.446;-2.266;2023-10-13T09:20:38;108499.03;;;12.05;100.00
73101;BME280;61288;53.446;-2.266;2023-10-13T09:23:14;108525.63;;;12.01;100.00
73101;BME280;61288;53.446;-2.266;2023-10-13T09:26:09;108514.78;;;11.96;100.00
73101;BME280;61288;53.446;-2.266;2023-10-13T09:28:37;108533.56;;;11.92;100.00
73101;BME280;61288;53.446;-2.266;2023-10-13T09:31:03;108535.91;;;11.89;100.00
73101;BME280;61288;53.446;-2.266;2023-10-13T09:33:36;108528.75;;;11.86;100.00
73101;BME280;61288;53.446;-2.266;2023-10-13T09:36:06;108547.09;;;11.88;100.00
73101;BME280;61288;53.446;-2.266;2023-10-13T09:38:38;108549.72;;;11.88;100.00
73101;BME280;61288;53.446;-2.266;2023-10-13T09:41:13;108561.25;;;11.91;100.00
73101;BME280;61288;53.446;-2.266;2023-10-13T09:43:52;108583.22;;;11.95;100.00
73101;BME280;61288;53.446;-2.266;2023-10-13T09:46:26;108600.66;;;11.96;100.00
73101;BME280;61288;53.446;-2.266;2023-10-13T09:48:58;108623.28;;;11.97;100.00
73101;BME280;61288;53.446;-2.266;2023-10-13T09:51:33;108617.84;;;11.94;100.00
73101;BME280;61288;53.446;-2.266;2023-10-13T09:54:20;108601.19;;;11.92;100.00
73101;BME280;61288;53.446;-2.266;2023-10-13T09:56:57;108601.44;;;11.95;100.00
73101;BME280;61288;53.446;-2.266;2023-10-13T09:59:41;108617.19;;;11.96;100.00
73101;BME280;61288;53.446;-2.266;2023-10-13T10:02:14;108633.81;;;11.98;100.00
73101;BME280;61288;53.446;-2.266;2023-10-13T10:04:53;108635.66;;;11.99;100.00
73101;BME280;61288;53.446;-2.266;2023-10-13T10:07:26;108655.03;;;12.03;100.00
73101;BME280;61288;53.446;-2.266;2023-10-13T10:09:59;108662.84;;;12.03;100.00
73101;BME280;61288;53.446;-2.266;2023-10-13T10:12:52;108671.69;;;12.05;100.00
73101;BME280;61288;53.446;-2.266;2023-10-13T10:15:28;108699.75;;;12.09;100.00
73101;BME280;61288;53.446;-2.266;2023-10-13T10:18:00;108722.53;;;12.12;100.00
73101;BME280;61288;53.446;-2.266;2023-10-13T10:20:34;108716.94;;;12.07;100.00
73101;BME280;61288;53.446;-2.266;2023-10-13T10:23:24;108719.03;;;12.11;100.00
73101;BME280;61288;53.446;-2.266;2023-10-13T10:25:53;108747.78;;;12.13;100.00
73101;BME280;61288;53.446;-2.266;2023-10-13T10:28:35;108748.81;;;12.15;100.00
73101;BME280;61288;53.446;-2.266;2023-10-13T10:31:06;108761.03;;;12.16;100.00
73101;BME280;61288;53.446;-2.266;2023-10-13T10:33:42;108764.56;;;12.17;100.00
73101;BME280;61288;53.446;-2.266;2023-10-13T10:36:08;108788.25;;;12.20;100.00
73101;BME280;61288;53.446;-2.266;2023-10-13T10:38:59;108799.44;;;12.19;100.00
73101;BME280;61288;53.446;-2.266;2023-10-13T10:41:30;108823.50;;;12.16;100.00
73101;BME280;61288;53.446;-2.266;2023-10-13T10:44:12;108819.75;;;12.12;100.00
73101;BME280;61288;53.446;-2.266;2023-10-13T10:46:56;108793.06;;;11.94;100.00
73101;BME280;61288;53.446;-2.266;2023-10-13T10:49:26;108782.53;;;11.82;100.00
73101;BME280;61288;53.446;-2.266;2023-10-13T10:52:01;108762.50;;;11.71;100.00
73101;BME280;61288;53.446;-2.266;2023-10-13T10:54:30;108762.25;;;11.68;100.00
73101;BME280;61288;53.446;-2.266;2023-10-13T10:57:00;108770.03;;;11.68;100.00
73101;BME280;61288;53.446;-2.266;2023-10-13T10:59:38;108778.53;;;11.65;100.00
73101;BME280;61288;53.446;-2.266;2023-10-13T11:02:05;108804.63;;;11.67;100.00
73101;BME280;61288;53.446;-2.266;2023-10-13T11:04:32;108823.63;;;11.66;100.00
73101;BME280;61288;53.446;-2.266;2023-10-13T11:07:06;108827.25;;;11.68;100.00
73101;BME280;61288;53.446;-2.266;2023-10-13T11:09:35;108847.94;;;11.66;100.00
73101;BME280;61288;53.446;-2.266;2023-10-13T11:12:10;108835.47;;;11.62;100.00
73101;BME280;61288;53.446;-2.266;2023-10-13T11:14:41;108842.97;;;11.59;100.00
73101;BME280;61288;53.446;-2.266;2023-10-13T11:17:07;108865.63;;;11.60;100.00
73101;BME280;61288;53.446;-2.266;2023-10-13T11:19:42;108860.28;;;11.59;100.00
73101;BME280;61288;53.446;-2.266;2023-10-13T11:22:15;108886.28;;;11.59;100.00
73101;BME280;61288;53.446;-2.266;2023-10-13T11:25:03;108886.03;;;11.55;100.00
73101;BME280;61288;53.446;-2.266;2023-10-13T11:27:37;108860.66;;;11.43;100.00
73101;BME280;61288;53.446;-2.266;2023-10-13T11:30:13;108825.00;;;11.31;100.00
73101;BME280;61288;53.446;-2.266;2023-10-13T11:33:05;108796.78;;;11.25;100.00
73101;BME280;61288;53.446;-2.266;2023-10-13T11:35:35;108792.22;;;11.23;100.00
73101;BME280;61288;53.446;-2.266;2023-10-13T11:38:15;108812.38;;;11.25;100.00
73101;BME280;61288;53.446;-2.266;2023-10-13T11:40:50;108818.59;;;11.17;100.00
73101;BME280;61288;53.446;-2.266;2023-10-13T11:43:40;108777.91;;;11.07;100.00
73101;BME280;61288;53.446;-2.266;2023-10-13T11:48:38;108738.16;;;10.98;100.00
73101;BME280;61288;53.446;-2.266;2023-10-13T11:51:09;108672.66;;;10.92;100.00
73101;BME280;61288;53.446;-2.266;2023-10-13T11:53:44;108597.72;;;10.86;100.00
73101;BME280;61288;53.446;-2.266;2023-10-13T11:56:17;108468.94;;;10.78;100.00
73101;BME280;61288;53.446;-2.266;2023-10-13T11:58:46;108316.91;;;10.71;100.00
73101;BME280;61288;53.446;-2.266;2023-10-13T12:01:12;108119.88;;;10.64;100.00
73101;BME280;61288;53.446;-2.266;2023-10-13T12:03:42;107915.47;;;10.61;100.00
73101;BME280;61288;53.446;-2.266;2023-10-13T12:06:30;107600.06;;;10.54;100.00
73101;BME280;61288;53.446;-2.266;2023-10-13T12:09:10;107309.19;;;10.51;100.00
73101;BME280;61288;53.446;-2.266;2023-10-13T12:11:48;106988.97;;;10.48;100.00
73101;BME280;61288;53.446;-2.266;2023-10-13T12:14:17;106695.69;;;10.46;100.00
73101;BME280;61288;53.446;-2.266;2023-10-13T12:16:45;106488.16;;;10.46;100.00
73101;BME280;61288;53.446;-2.266;2023-10-13T12:19:23;106279.78;;;10.47;100.00
73101;BME280;61288;53.446;-2.266;2023-10-13T12:21:58;106124.16;;;10.47;100.00
73101;BME280;61288;53.446;-2.266;2023-10-13T12:24:30;105998.59;;;10.44;100.00
73101;BME280;61288;53.446;-2.266;2023-10-13T12:27:08;105880.13;;;10.43;100.00
73101;BME280;61288;53.446;-2.266;2023-10-13T12:30:00;105766.91;;;10.43;100.00
73101;BME280;61288;53.446;-2.266;2023-10-13T12:32:35;105702.81;;;10.40;100.00
73101;BME280;61288;53.446;-2.266;2023-10-13T12:35:01;105600.56;;;10.35;100.00
73101;BME280;61288;53.446;-2.266;2023-10-13T12:37:30;105504.69;;;10.37;100.00
73101;BME280;61288;53.446;-2.266;2023-10-13T12:40:06;105394.88;;;10.36;100.00
73101;BME280;61288;53.446;-2.266;2023-10-13T12:42:51;105277.25;;;10.34;100.00
73101;BME280;61288;53.446;-2.266;2023-10-13T12:45:39;105156.22;;;10.33;100.00
73101;BME280;61288;53.446;-2.266;2023-10-13T12:48:23;105045.72;;;10.37;100.00
73101;BME280;61288;53.446;-2.266;2023-10-13T12:51:07;104958.47;;;10.39;100.00
73101;BME280;61288;53.446;-2.266;2023-10-13T12:53:55;104920.56;;;10.43;100.00
73101;BME280;61288;53.446;-2.266;2023-10-13T12:56:25;104903.41;;;10.46;100.00
73101;BME280;61288;53.446;-2.266;2023-10-13T12:58:54;104906.91;;;10.48;100.00
73101;BME280;61288;53.446;-2.266;2023-10-13T13:01:26;104904.31;;;10.48;100.00
73101;BME280;61288;53.446;-2.266;2023-10-13T13:04:12;104899.97;;;10.47;100.00
73101;BME280;61288;53.446;-2.266;2023-10-13T13:06:49;104901.63;;;10.45;100.00
73101;BME280;61288;53.446;-2.266;2023-10-13T13:09:15;104857.41;;;10.40;100.00
73101;BME280;61288;53.446;-2.266;2023-10-13T13:11:54;104728.34;;;10.29;100.00
73101;BME280;61288;53.446;-2.266;2023-10-13T13:14:26;104583.06;;;10.25;100.00
73101;BME280;61288;53.446;-2.266;2023-10-13T13:16:58;104410.09;;;10.17;100.00
73101;BME280;61288;53.446;-2.266;2023-10-13T13:19:36;104205.22;;;10.10;100.00
73101;BME280;61288;53.446;-2.266;2023-10-13T13:22:05;104041.03;;;10.05;100.00
73101;BME280;61288;53.446;-2.266;2023-10-13T13:24:48;103873.50;;;10.03;100.00
73101;BME280;61288;53.446;-2.266;2023-10-13T13:27:16;103808.72;;;10.04;100.00
73101;BME280;61288;53.446;-2.266;2023-10-13T13:29:49;103763.81;;;10.04;100.00
73101;BME280;61288;53.446;-2.266;2023-10-13T13:32:15;103768.16;;;10.06;100.00
73101;BME280;61288;53.446;-2.266;2023-10-13T13:34:50;103803.59;;;10.10;100.00